Time,TemperatureF,DewpointF,PressureIn,WindDirection,WindDirectionDegrees,WindSpeedMPH,WindSpeedGustMPH,Humidity,HourlyPrecipIn,Conditions,Clouds,dailyrainin,SoftwareType,DateUTC
2013-03-18 00:02:00,36.1,32.9,29.21,WNW,292,0.0,0.0,88,0.00,RA,,0.00,WeatherDisplay:10.37,2013-03-18 07:02:00,
2013-03-18 00:07:00,36.1,32.9,29.21,WNW,292,0.0,0.0,88,0.00,RA,,0.00,WeatherDisplay:10.37,2013-03-18 07:07:00,
2013-03-18 00:12:00,36.1,32.9,29.21,West,270,0.0,0.0,88,0.00,CLR,,0.00,WeatherDisplay:10.37,2013-03-18 07:12:00,
2013-03-18 00:17:00,36.0,32.8,29.20,West,270,0.0,0.0,88,0.00,CLR,,0.00,WeatherDisplay:10.37,2013-03-18 07:17:00,
2013-03-18 00:22:00,36.1,32.9,29.21,NE,45,1.4,1.4,88,0.00,CLR,,0.00,WeatherDisplay:10.37,2013-03-18 07:22:00,
2013-03-18 00:28:00,36.1,32.9,29.21,ESE,112,0.0,0.0,88,0.00,CLR,,0.00,WeatherDisplay:10.37,2013-03-18 07:28:00,
2013-03-18 00:33:00,36.3,33.1,29.21,West,270,1.2,0.0,88,0.00,CLR,,0.00,WeatherDisplay:10.37,2013-03-18 07:33:00,
2013-03-18 00:38:00,36.1,32.6,29.21,NW,315,1.2,1.2,87,0.00,CLR,,0.00,WeatherDisplay:10.37,2013-03-18 07:38:00,
2013-03-18 00:43:00,36.1,32.6,29.21,WNW,292,1.2,1.2,87,0.00,CLR,,0.00,WeatherDisplay:10.37,2013-03-18 07:43:00,
2013-03-18 00:48:00,36.3,32.8,29.20,WNW,292,0.0,0.0,87,0.00,CLR,,0.00,WeatherDisplay:10.37,2013-03-18 07:48:00,
2013-03-18 00:53:00,36.3,32.8,29.21,WNW,292,0.0,0.0,87,0.00,CLR,,0.00,WeatherDisplay:10.37,2013-03-18 07:53:00,
2013-03-18 00:58:00,36.3,32.8,29.21,East,90,0.0,0.0,87,0.00,CLR,,0.00,WeatherDisplay:10.37,2013-03-18 07:58:00,
2013-03-18 01:03:00,36.3,32.8,29.21,South,180,0.0,0.0,87,0.00,CLR,,0.00,WeatherDisplay:10.37,2013-03-18 08:03:00,
2013-03-18 01:08:00,36.3,32.8,29.21,South,180,0.0,0.0,87,0.00,CLR,,0.00,WeatherDisplay:10.37,2013-03-18 08:08:00,
2013-03-18 01:13:00,36.3,32.8,29.21,South,180,0.0,0.0,87,0.00,CLR,,0.00,WeatherDisplay:10.37,2013-03-18 08:13:00,
2013-03-18 01:18:00,36.5,33.0,29.21,SW,225,0.0,0.0,87,0.00,CLR,,0.00,WeatherDisplay:10.37,2013-03-18 08:18:00,
2013-03-18 01:23:00,36.5,33.0,29.20,NW,315,0.0,0.0,87,0.00,CLR,,0.00,WeatherDisplay:10.37,2013-03-18 08:23:00,
2013-03-18 01:28:00,36.3,32.8,29.20,NNW,338,0.0,0.0,87,0.00,CLR,,0.00,WeatherDisplay:10.37,2013-03-18 08:28:00,
2013-03-18 01:33:00,36.3,32.8,29.20,WSW,248,1.2,1.2,87,0.00,CLR,,0.00,WeatherDisplay:10.37,2013-03-18 08:33:00,
2013-03-18 01:38:00,36.3,32.5,29.20,WNW,292,0.0,0.0,86,0.00,CLR,,0.00,WeatherDisplay:10.37,2013-03-18 08:38:00,
2013-03-18 01:43:00,36.3,32.8,29.20,WNW,292,0.0,0.0,87,0.00,CLR,,0.00,WeatherDisplay:10.37,2013-03-18 08:43:00,
2013-03-18 01:48:00,36.3,32.8,29.20,WNW,292,0.0,0.0,87,0.00,CLR,,0.00,WeatherDisplay:10.37,2013-03-18 08:48:00,
2013-03-18 01:53:00,36.3,32.5,29.20,NNW,338,0.0,0.0,86,0.00,CLR,,0.00,WeatherDisplay:10.37,2013-03-18 08:53:00,
2013-03-18 01:58:00,36.3,32.8,29.20,NNW,338,0.0,0.0,87,0.00,CLR,,0.00,WeatherDisplay:10.37,2013-03-18 08:58:00,
2013-03-18 02:03:00,36.3,32.8,29.19,North,0,0.0,0.0,87,0.00,CLR,,0.00,WeatherDisplay:10.37,2013-03-18 09:03:00,
2013-03-18 02:08:00,36.3,32.8,29.20,ENE,68,1.2,1.2,87,0.00,CLR,,0.00,WeatherDisplay:10.37,2013-03-18 09:08:00,
2013-03-18 02:13:00,36.3,32.8,29.19,ESE,112,0.5,0.5,87,0.00,CLR,,0.00,WeatherDisplay:10.37,2013-03-18 09:13:00,
2013-03-18 02:18:00,36.3,32.8,29.20,ESE,112,0.0,0.0,87,0.00,CLR,,0.00,WeatherDisplay:10.37,2013-03-18 09:18:00,
2013-03-18 02:23:00,36.3,32.5,29.20,ESE,112,0.0,0.0,86,0.00,CLR,,0.00,WeatherDisplay:10.37,2013-03-18 09:23:00,
2013-03-18 02:28:00,36.3,32.8,29.20,ENE,68,1.2,1.2,87,0.00,CLR,,0.00,WeatherDisplay:10.37,2013-03-18 09:28:00,
2013-03-18 02:33:00,36.3,32.8,29.20,ENE,68,0.0,0.0,87,0.00,CLR,,0.00,WeatherDisplay:10.37,2013-03-18 09:33:00,
2013-03-18 02:38:00,36.3,32.8,29.19,ENE,68,1.2,1.2,87,0.00,CLR,,0.00,WeatherDisplay:10.37,2013-03-18 09:38:00,
2013-03-18 02:43:00,36.5,32.7,29.20,ENE,68,0.0,0.0,86,0.00,CLR,,0.00,WeatherDisplay:10.37,2013-03-18 09:43:00,
2013-03-18 02:48:00,36.5,32.7,29.20,ENE,68,1.2,1.2,86,0.00,CLR,,0.00,WeatherDisplay:10.37,2013-03-18 09:48:00,
2013-03-18 02:53:00,36.5,32.7,29.20,ENE,68,0.0,0.0,86,0.00,CLR,,0.00,WeatherDisplay:10.37,2013-03-18 09:53:00,
2013-03-18 02:58:00,36.5,32.7,29.20,ENE,68,1.2,0.0,86,0.00,CLR,,0.00,WeatherDisplay:10.37,2013-03-18 09:58:00,
2013-03-18 03:03:00,36.7,32.9,29.20,ESE,112,2.3,2.3,86,0.00,CLR,,0.00,WeatherDisplay:10.37,2013-03-18 10:03:00,
2013-03-18 03:08:00,36.7,32.9,29.20,East,90,0.7,0.7,86,0.00,CLR,,0.00,WeatherDisplay:10.37,2013-03-18 10:08:00,
2013-03-18 03:13:00,36.7,32.9,29.20,East,90,1.2,1.2,86,0.00,CLR,,0.00,WeatherDisplay:10.37,2013-03-18 10:13:00,
2013-03-18 03:18:00,36.7,32.9,29.20,East,90,0.2,0.2,86,0.00,CLR,,0.00,WeatherDisplay:10.37,2013-03-18 10:18:00,
2013-03-18 03:23:00,36.7,32.9,29.20,ENE,68,1.2,1.2,86,0.00,CLR,,0.00,WeatherDisplay:10.37,2013-03-18 10:23:00,
2013-03-18 03:28:00,36.7,32.9,29.20,ENE,68,2.3,0.0,86,0.00,CLR,,0.00,WeatherDisplay:10.37,2013-03-18 10:28:00,
2013-03-18 03:33:00,36.7,32.9,29.20,East,90,1.2,1.2,86,0.00,CLR,,0.00,WeatherDisplay:10.37,2013-03-18 10:33:00,
2013-03-18 03:38:00,36.7,32.9,29.20,SSE,158,0.5,0.5,86,0.00,CLR,,0.00,WeatherDisplay:10.37,2013-03-18 10:38:00,
2013-03-18 03:43:00,36.9,33.1,29.20,SE,135,1.2,1.2,86,0.00,CLR,,0.00,WeatherDisplay:10.37,2013-03-18 10:43:00,
2013-03-18 03:48:00,36.7,32.9,29.20,SE,135,1.6,1.6,86,0.00,CLR,,0.00,WeatherDisplay:10.37,2013-03-18 10:48:00,
2013-03-18 03:53:00,36.7,32.9,29.20,SE,135,2.3,2.3,86,0.00,CLR,,0.00,WeatherDisplay:10.37,2013-03-18 10:53:00,
2013-03-18 03:58:00,36.9,33.1,29.20,SE,135,1.4,1.4,86,0.00,CLR,,0.00,WeatherDisplay:10.37,2013-03-18 10:58:00,
2013-03-18 04:03:00,36.7,32.9,29.20,ESE,112,2.3,2.3,86,0.00,CLR,,0.00,WeatherDisplay:10.37,2013-03-18 11:03:00,
2013-03-18 04:08:00,36.7,33.2,29.20,ESE,112,2.3,2.3,87,0.00,CLR,,0.00,WeatherDisplay:10.37,2013-03-18 11:08:00,
2013-03-18 04:13:00,36.7,33.2,29.20,SE,135,2.3,2.3,87,0.00,CLR,,0.00,WeatherDisplay:10.37,2013-03-18 11:13:00,
2013-03-18 04:18:00,36.7,33.2,29.20,East,90,3.5,3.5,87,0.00,CLR,,0.00,WeatherDisplay:10.37,2013-03-18 11:18:00,
2013-03-18 04:23:00,36.7,33.2,29.20,SE,135,4.6,4.6,87,0.00,CLR,,0.00,WeatherDisplay:10.37,2013-03-18 11:23:00,
2013-03-18 04:28:00,36.5,33.0,29.20,ESE,112,3.5,3.5,87,0.00,CLR,,0.00,WeatherDisplay:10.37,2013-03-18 11:28:00,
2013-03-18 04:33:00,36.5,33.0,29.20,ESE,112,4.6,4.6,87,0.00,CLR,,0.00,WeatherDisplay:10.37,2013-03-18 11:33:00,
2013-03-18 04:38:00,36.5,33.0,29.20,East,90,2.4,2.4,87,0.00,CLR,,0.00,WeatherDisplay:10.37,2013-03-18 11:38:00,
2013-03-18 04:43:00,36.3,32.8,29.20,SE,135,4.6,4.6,87,0.00,CLR,,0.00,WeatherDisplay:10.37,2013-03-18 11:43:00,
2013-03-18 04:48:00,36.3,32.8,29.20,ESE,112,2.3,2.3,87,0.00,CLR,,0.00,WeatherDisplay:10.37,2013-03-18 11:48:00,
2013-03-18 04:53:00,36.3,32.8,29.20,ENE,68,1.2,1.2,87,0.00,CLR,,0.00,WeatherDisplay:10.37,2013-03-18 11:53:00,
2013-03-18 04:58:00,36.3,32.8,29.20,ESE,112,1.2,1.2,87,0.00,CLR,,0.00,WeatherDisplay:10.37,2013-03-18 11:58:00,
2013-03-18 05:04:00,36.3,32.8,29.20,ESE,112,2.3,2.3,87,0.00,CLR,,0.00,WeatherDisplay:10.37,2013-03-18 12:04:00,
2013-03-18 05:09:00,36.3,32.8,29.20,ESE,112,2.3,2.3,87,0.00,CLR,,0.00,WeatherDisplay:10.37,2013-03-18 12:09:00,
2013-03-18 05:14:00,36.3,32.8,29.20,ESE,112,2.3,2.3,87,0.00,CLR,,0.00,WeatherDisplay:10.37,2013-03-18 12:14:00,
2013-03-18 05:19:00,36.3,32.8,29.20,ESE,112,2.3,2.3,87,0.00,CLR,,0.00,WeatherDisplay:10.37,2013-03-18 12:19:00,
2013-03-18 05:24:00,36.3,32.8,29.19,ESE,112,2.3,2.3,87,0.00,CLR,,0.00,WeatherDisplay:10.37,2013-03-18 12:24:00,
2013-03-18 05:29:00,36.3,32.8,29.20,ENE,68,1.2,1.2,87,0.00,CLR,,0.00,WeatherDisplay:10.37,2013-03-18 12:29:00,
2013-03-18 05:34:00,36.3,32.8,29.19,ESE,112,1.4,1.4,87,0.00,CLR,,0.00,WeatherDisplay:10.37,2013-03-18 12:34:00,
2013-03-18 05:39:00,36.3,33.1,29.20,ESE,112,3.5,3.5,88,0.00,CLR,,0.00,WeatherDisplay:10.37,2013-03-18 12:39:00,
2013-03-18 05:44:00,36.3,32.8,29.20,East,90,4.6,4.6,87,0.00,CLR,,0.00,WeatherDisplay:10.37,2013-03-18 12:44:00,
2013-03-18 05:49:00,36.3,33.1,29.20,ESE,112,2.3,2.3,88,0.00,CLR,,0.00,WeatherDisplay:10.37,2013-03-18 12:49:00,
2013-03-18 05:54:00,36.3,32.8,29.20,East,90,1.2,1.2,87,0.00,CLR,,0.00,WeatherDisplay:10.37,2013-03-18 12:54:00,
2013-03-18 05:59:00,36.1,32.9,29.20,ENE,68,1.2,1.2,88,0.00,CLR,,0.00,WeatherDisplay:10.37,2013-03-18 12:59:00,
2013-03-18 06:04:00,36.1,32.9,29.20,East,90,1.2,1.2,88,0.00,CLR,,0.00,WeatherDisplay:10.37,2013-03-18 13:04:00,
2013-03-18 06:09:00,36.3,33.1,29.20,East,90,2.3,2.3,88,0.00,CLR,,0.00,WeatherDisplay:10.37,2013-03-18 13:09:00,
2013-03-18 06:14:00,36.3,32.8,29.20,ESE,112,1.2,1.2,87,0.00,CLR,,0.00,WeatherDisplay:10.37,2013-03-18 13:14:00,
2013-03-18 06:19:00,36.3,32.8,29.21,ESE,112,0.0,0.0,87,0.00,CLR,,0.00,WeatherDisplay:10.37,2013-03-18 13:19:00,
2013-03-18 06:24:00,36.3,32.8,29.20,East,90,1.2,0.0,87,0.00,CLR,,0.00,WeatherDisplay:10.37,2013-03-18 13:24:00,
2013-03-18 06:29:00,36.5,33.0,29.21,SSE,158,1.6,1.6,87,0.00,CLR,,0.00,WeatherDisplay:10.37,2013-03-18 13:29:00,
2013-03-18 06:34:00,36.5,33.0,29.21,ESE,112,2.3,2.3,87,0.00,CLR,,0.00,WeatherDisplay:10.37,2013-03-18 13:34:00,
2013-03-18 06:39:00,36.5,33.0,29.21,ESE,112,2.3,2.3,87,0.00,CLR,,0.00,WeatherDisplay:10.37,2013-03-18 13:39:00,
2013-03-18 06:44:00,36.3,32.8,29.21,ENE,68,2.3,2.3,87,0.00,CLR,,0.00,WeatherDisplay:10.37,2013-03-18 13:44:00,
2013-03-18 06:49:00,36.3,33.1,29.21,ENE,68,2.3,2.3,88,0.00,CLR,,0.00,WeatherDisplay:10.37,2013-03-18 13:49:00,
2013-03-18 06:54:00,36.3,33.1,29.21,East,90,1.2,1.2,88,0.00,CLR,,0.00,WeatherDisplay:10.37,2013-03-18 13:54:00,
2013-03-18 06:59:00,36.3,33.1,29.21,East,90,1.4,1.4,88,0.00,CLR,,0.00,WeatherDisplay:10.37,2013-03-18 13:59:00,
2013-03-18 07:04:00,36.3,33.1,29.20,East,90,1.2,1.2,88,0.00,CLR,,0.00,WeatherDisplay:10.37,2013-03-18 14:04:00,
2013-03-18 07:09:00,36.3,32.8,29.21,East,90,3.5,3.5,87,0.00,CLR,,0.00,WeatherDisplay:10.37,2013-03-18 14:09:00,
2013-03-18 07:14:00,36.3,32.8,29.21,ESE,112,2.3,2.3,87,0.00,CLR,,0.00,WeatherDisplay:10.37,2013-03-18 14:14:00,
2013-03-18 07:19:00,36.3,32.8,29.21,ESE,112,2.3,2.3,87,0.00,CLR,,0.00,WeatherDisplay:10.37,2013-03-18 14:19:00,
2013-03-18 07:24:00,36.3,32.8,29.21,East,90,2.3,2.3,87,0.00,CLR,,0.00,WeatherDisplay:10.37,2013-03-18 14:24:00,
2013-03-18 07:29:00,36.3,33.1,29.21,East,90,2.4,2.4,88,0.00,CLR,,0.00,WeatherDisplay:10.37,2013-03-18 14:29:00,
2013-03-18 07:34:00,36.3,33.1,29.21,NNE,22,4.6,4.6,88,0.00,CLR,,0.00,WeatherDisplay:10.37,2013-03-18 14:34:00,
2013-03-18 07:39:00,36.3,33.1,29.21,ESE,112,3.5,3.5,88,0.00,CLR,,0.00,WeatherDisplay:10.37,2013-03-18 14:39:00,
2013-03-18 07:44:00,36.3,33.1,29.21,East,90,3.5,3.5,88,0.00,CLR,,0.00,WeatherDisplay:10.37,2013-03-18 14:44:00,
2013-03-18 07:49:00,36.3,33.1,29.21,SE,135,3.5,3.5,88,0.00,CLR,,0.00,WeatherDisplay:10.37,2013-03-18 14:49:00,
2013-03-18 07:54:00,36.3,33.1,29.21,SE,135,4.6,4.6,88,0.00,CLR,,0.00,WeatherDisplay:10.37,2013-03-18 14:54:00,
2013-03-18 07:59:00,36.3,33.1,29.21,ESE,112,4.6,4.6,88,0.00,CLR,,0.00,WeatherDisplay:10.37,2013-03-18 14:59:00,
2013-03-18 08:04:00,36.3,33.1,29.21,East,90,5.4,5.4,88,0.00,CLR,,0.00,WeatherDisplay:10.37,2013-03-18 15:04:00,
2013-03-18 08:09:00,36.3,33.1,29.21,ESE,112,4.7,4.7,88,0.00,CLR,,0.00,WeatherDisplay:10.37,2013-03-18 15:09:00,
2013-03-18 08:14:00,36.3,33.1,29.21,ESE,112,3.5,4.3,88,0.00,CLR,,0.00,WeatherDisplay:10.37,2013-03-18 15:14:00,
2013-03-18 08:19:00,36.3,33.1,29.21,ESE,112,5.8,5.8,88,0.00,CLR,,0.00,WeatherDisplay:10.37,2013-03-18 15:19:00,
2013-03-18 08:24:00,36.5,33.3,29.21,East,90,5.2,5.2,88,0.00,CLR,,0.00,WeatherDisplay:10.37,2013-03-18 15:24:00,
2013-03-18 08:29:00,36.5,33.3,29.21,ESE,112,4.0,4.0,88,0.00,CLR,,0.00,WeatherDisplay:10.37,2013-03-18 15:29:00,
2013-03-18 08:34:00,36.7,33.5,29.21,East,90,4.6,4.6,88,0.00,CLR,,0.00,WeatherDisplay:10.37,2013-03-18 15:34:00,
2013-03-18 08:39:00,36.9,33.6,29.21,ESE,112,4.6,4.6,88,0.00,CLR,,0.00,WeatherDisplay:10.37,2013-03-18 15:39:00,
2013-03-18 08:44:00,37.0,33.8,29.21,ESE,112,8.1,8.1,88,0.00,CLR,,0.00,WeatherDisplay:10.37,2013-03-18 15:44:00,
2013-03-18 08:49:00,37.2,33.7,29.21,ESE,110,2.0,6.0,87,0.00,CLR,CLR,0.00,WeatherDisplay:10.37,2013-03-18 15:49:00,
2013-03-18 08:54:00,37.6,34.4,29.21,ESE,120,2.0,5.0,88,0.00,CLR,CLR,0.00,WeatherDisplay:10.37,2013-03-18 15:54:00,
2013-03-18 08:59:00,37.8,34.2,29.21,ESE,112,5.8,5.8,87,0.00,CLR,,0.00,WeatherDisplay:10.37,2013-03-18 15:59:00,
2013-03-18 09:04:00,37.8,34.2,29.21,ESE,122,3.0,5.0,87,0.00,CLR,CLR,0.00,WeatherDisplay:10.37,2013-03-18 16:04:00,
2013-03-18 09:09:00,37.9,34.4,29.21,ESE,112,4.0,4.0,87,0.00,CLR,,0.00,WeatherDisplay:10.37,2013-03-18 16:09:00,
2013-03-18 09:14:00,38.5,34.9,29.21,ESE,112,3.5,3.5,87,0.00,CLR,,0.00,WeatherDisplay:10.37,2013-03-18 16:14:00,
2013-03-18 09:19:00,39.2,35.6,29.21,ESE,117,5.0,6.0,87,0.00,CLR,CLR,0.00,WeatherDisplay:10.37,2013-03-18 16:19:00,
2013-03-18 09:24:00,41.2,36.7,29.21,ESE,112,5.8,5.8,84,0.00,CLR,,0.00,WeatherDisplay:10.37,2013-03-18 16:24:00,
2013-03-18 09:29:00,41.5,36.1,29.21,ESE,112,4.7,4.7,81,0.00,CLR,,0.00,WeatherDisplay:10.37,2013-03-18 16:29:00,
2013-03-18 09:34:00,41.0,35.9,29.22,ESE,108,3.0,6.0,82,0.00,CLR,CLR,0.00,WeatherDisplay:10.37,2013-03-18 16:34:00,
2013-03-18 09:39:00,40.7,35.6,29.22,ESE,113,6.0,7.0,82,0.00,CLR,CLR,0.00,WeatherDisplay:10.37,2013-03-18 16:39:00,
2013-03-18 09:44:00,40.2,35.2,29.22,SE,124,3.0,6.0,82,0.00,CLR,CLR,0.00,WeatherDisplay:10.37,2013-03-18 16:44:00,
2013-03-18 09:49:00,39.9,35.1,29.22,SE,129,5.0,6.0,83,0.00,CLR,CLR,0.00,WeatherDisplay:10.37,2013-03-18 16:49:00,
2013-03-18 09:54:00,39.7,35.3,29.22,ESE,112,5.8,5.8,84,0.00,CLR,,0.00,WeatherDisplay:10.37,2013-03-18 16:54:00,
2013-03-18 09:59:00,39.9,35.5,29.22,ESE,118,5.0,6.0,84,0.00,CLR,CLR,0.00,WeatherDisplay:10.37,2013-03-18 16:59:00,
2013-03-18 10:04:00,40.1,35.6,29.22,ESE,120,5.0,6.0,84,0.00,CLR,CLR,0.00,WeatherDisplay:10.37,2013-03-18 17:04:00,
2013-03-18 10:09:00,40.6,36.2,29.22,SE,135,6.9,6.9,84,0.00,CLR,,0.00,WeatherDisplay:10.37,2013-03-18 17:09:00,
2013-03-18 10:14:00,40.8,35.7,29.22,East,90,8.1,8.1,82,0.00,CLR,,0.00,WeatherDisplay:10.37,2013-03-18 17:14:00,
2013-03-18 10:19:00,41.0,36.2,29.22,SE,135,4.7,4.7,83,0.00,CLR,,0.00,WeatherDisplay:10.37,2013-03-18 17:19:00,
2013-03-18 10:24:00,41.4,36.3,29.22,ESE,112,4.7,4.7,82,0.00,CLR,,0.00,WeatherDisplay:10.37,2013-03-18 17:24:00,
2013-03-18 10:29:00,41.4,36.3,29.22,ESE,112,5.8,5.8,82,0.00,CLR,,0.00,WeatherDisplay:10.37,2013-03-18 17:29:00,
2013-03-18 10:34:00,41.2,36.1,29.22,SSE,158,4.6,4.6,82,0.00,CLR,,0.00,WeatherDisplay:10.37,2013-03-18 17:34:00,
2013-03-18 10:39:00,41.3,35.9,29.22,ESE,121,5.0,8.0,81,0.00,CLR,CLR,0.00,WeatherDisplay:10.37,2013-03-18 17:39:00,
2013-03-18 10:44:00,41.0,35.9,29.22,SE,124,3.0,6.0,82,0.00,CLR,CLR,0.00,WeatherDisplay:10.37,2013-03-18 17:44:00,
2013-03-18 10:49:00,40.8,35.7,29.22,ESE,112,4.6,4.6,82,0.00,CLR,,0.00,WeatherDisplay:10.37,2013-03-18 17:49:00,
2013-03-18 10:54:00,41.0,36.0,29.22,ESE,111,3.0,6.0,82,0.00,CLR,CLR,0.00,WeatherDisplay:10.37,2013-03-18 17:54:00,
2013-03-18 10:59:00,41.8,37.0,29.22,ESE,114,5.0,5.0,83,0.00,CLR,CLR,0.00,WeatherDisplay:10.37,2013-03-18 17:59:00,
2013-03-18 11:04:00,42.3,36.8,29.22,ESE,120,5.0,6.0,81,0.00,CLR,CLR,0.00,WeatherDisplay:10.37,2013-03-18 18:04:00,
2013-03-18 11:09:00,42.8,37.1,29.22,ESE,122,3.0,6.0,80,0.00,CLR,CLR,0.00,WeatherDisplay:10.37,2013-03-18 18:09:00,
2013-03-18 11:14:00,43.1,37.0,29.22,ESE,121,6.0,6.0,79,0.00,CLR,CLR,0.00,WeatherDisplay:10.37,2013-03-18 18:14:00,
2013-03-18 11:19:00,43.3,37.2,29.22,ESE,121,5.0,7.0,79,0.00,CLR,CLR,0.00,WeatherDisplay:10.37,2013-03-18 18:19:00,
2013-03-18 11:24:00,43.5,37.4,29.22,SE,126,3.0,6.0,79,0.00,CLR,CLR,0.00,WeatherDisplay:10.37,2013-03-18 18:24:00,
2013-03-18 11:29:00,43.9,37.4,29.22,SE,135,5.0,6.0,78,0.00,CLR,CLR,0.00,WeatherDisplay:10.37,2013-03-18 18:29:00,
2013-03-18 11:34:00,43.3,36.9,29.22,ESE,119,5.0,6.0,78,0.00,CLR,CLR,0.00,WeatherDisplay:10.37,2013-03-18 18:34:00,
2013-03-18 11:39:00,43.3,37.3,29.21,ESE,112,4.6,4.6,79,0.00,CLR,,0.00,WeatherDisplay:10.37,2013-03-18 18:39:00,
2013-03-18 11:44:00,43.5,37.4,29.22,ESE,112,4.6,4.6,79,0.00,CLR,,0.00,WeatherDisplay:10.37,2013-03-18 18:44:00,
2013-03-18 11:49:00,43.5,36.8,29.22,SE,140,3.0,5.0,77,0.00,CLR,CLR,0.00,WeatherDisplay:10.37,2013-03-18 18:49:00,
2013-03-18 11:54:00,43.5,37.1,29.22,SE,135,5.8,5.8,78,0.00,CLR,,0.00,WeatherDisplay:10.37,2013-03-18 18:54:00,
2013-03-18 11:59:00,43.9,37.8,29.22,SE,135,3.5,3.5,79,0.00,CLR,,0.00,WeatherDisplay:10.37,2013-03-18 18:59:00,
2013-03-18 12:04:00,44.0,37.9,29.22,SE,139,3.0,6.0,79,0.00,CLR,CLR,0.00,WeatherDisplay:10.37,2013-03-18 19:04:00,
2013-03-18 12:09:00,44.3,38.2,29.22,SE,141,2.0,5.0,79,0.00,CLR,CLR,0.00,WeatherDisplay:10.37,2013-03-18 19:09:00,
2013-03-18 12:14:00,45.1,39.3,29.22,South,180,2.9,2.9,80,0.00,CLR,,0.00,WeatherDisplay:10.37,2013-03-18 19:14:00,
2013-03-18 12:19:00,45.4,39.3,29.22,SSE,156,2.0,5.0,79,0.00,CLR,CLR,0.00,WeatherDisplay:10.37,2013-03-18 19:19:00,
2013-03-18 12:24:00,45.5,39.0,29.22,ESE,112,2.3,2.3,78,0.00,CLR,,0.00,WeatherDisplay:10.37,2013-03-18 19:24:00,
2013-03-18 12:29:00,45.7,39.2,29.22,East,90,3.5,3.5,78,0.00,CLR,,0.00,WeatherDisplay:10.37,2013-03-18 19:29:00,
2013-03-18 12:34:00,46.3,40.2,29.22,ESE,123,1.0,2.0,79,0.00,CLR,CLR,0.00,WeatherDisplay:10.37,2013-03-18 19:34:00,
2013-03-18 12:39:00,48.4,42.2,29.22,NW,315,2.3,2.3,79,0.00,CLR,,0.00,WeatherDisplay:10.37,2013-03-18 19:39:00,
2013-03-18 12:44:00,49.5,42.9,29.21,SE,135,1.4,1.4,78,0.00,CLR,,0.00,WeatherDisplay:10.37,2013-03-18 19:44:00,
2013-03-18 12:49:00,49.5,41.5,29.22,West,270,2.3,2.3,74,0.00,CLR,,0.00,WeatherDisplay:10.37,2013-03-18 19:49:00,
2013-03-18 12:54:00,48.2,40.3,29.22,North,0,2.3,0.0,74,0.00,CLR,,0.00,WeatherDisplay:10.37,2013-03-18 19:54:00,
2013-03-18 12:59:00,47.3,40.1,29.22,WSW,252,2.0,2.0,76,0.00,CLR,CLR,0.00,WeatherDisplay:10.37,2013-03-18 19:59:00,
2013-03-18 13:04:00,46.0,39.2,29.22,SSE,158,3.5,3.5,77,0.01,RA,,0.01,WeatherDisplay:10.37,2013-03-18 20:04:00,
2013-03-18 13:09:00,45.3,38.5,29.22,SSE,158,3.5,3.5,77,0.01,RA,,0.01,WeatherDisplay:10.37,2013-03-18 20:09:00,
2013-03-18 13:14:00,45.1,38.6,29.23,SSW,210,2.0,3.0,78,0.00,RA,RA,0.02,WeatherDisplay:10.37,2013-03-18 20:14:00,
2013-03-18 13:19:00,45.3,38.9,29.23,WSW,241,0.0,2.0,78,0.00,RA,RA,0.02,WeatherDisplay:10.37,2013-03-18 20:19:00,
2013-03-18 13:24:00,45.7,39.5,29.23,WSW,248,1.2,1.2,79,0.02,,,0.02,WeatherDisplay:10.37,2013-03-18 20:24:00,
2013-03-18 13:29:00,46.1,40.3,29.22,WSW,245,1.0,1.0,80,0.00,CLR,CLR,0.02,WeatherDisplay:10.37,2013-03-18 20:29:00,
2013-03-18 13:34:00,46.8,40.6,29.23,NW,315,1.2,1.2,79,0.02,CLR,,0.02,WeatherDisplay:10.37,2013-03-18 20:34:00,
2013-03-18 13:39:00,47.6,41.7,29.22,SW,225,0.0,1.0,80,0.00,CLR,CLR,0.02,WeatherDisplay:10.37,2013-03-18 20:39:00,
2013-03-18 13:44:00,48.5,42.0,29.22,SW,227,2.0,3.0,78,0.00,CLR,CLR,0.02,WeatherDisplay:10.37,2013-03-18 20:44:00,
2013-03-18 13:49:00,48.7,41.8,29.22,WSW,248,2.3,2.3,77,0.02,CLR,,0.02,WeatherDisplay:10.37,2013-03-18 20:49:00,
2013-03-18 13:54:00,48.6,41.3,29.22,SW,232,2.0,3.0,76,0.00,CLR,CLR,0.02,WeatherDisplay:10.37,2013-03-18 20:54:00,
2013-03-18 13:59:00,48.5,41.6,29.22,SW,231,1.0,2.0,77,0.00,CLR,CLR,0.02,WeatherDisplay:10.37,2013-03-18 20:59:00,
2013-03-18 14:04:00,48.7,41.9,29.22,SSE,153,2.0,2.0,77,0.00,CLR,CLR,0.02,WeatherDisplay:10.37,2013-03-18 21:04:00,
2013-03-18 14:09:00,50.0,43.4,29.22,SE,135,2.3,2.3,78,0.01,CLR,,0.02,WeatherDisplay:10.37,2013-03-18 21:09:00,
2013-03-18 14:14:00,50.9,43.9,29.22,ESE,112,2.3,2.3,77,0.00,CLR,,0.02,WeatherDisplay:10.37,2013-03-18 21:14:00,
2013-03-18 14:19:00,51.4,44.1,29.22,NW,315,2.3,2.3,76,0.00,CLR,,0.02,WeatherDisplay:10.37,2013-03-18 21:19:00,
2013-03-18 14:24:00,51.8,43.8,29.22,ESE,120,1.0,2.0,74,0.00,CLR,CLR,0.02,WeatherDisplay:10.37,2013-03-18 21:24:00,
2013-03-18 14:29:00,51.4,43.1,29.22,ESE,112,3.6,3.6,73,0.00,CLR,,0.02,WeatherDisplay:10.37,2013-03-18 21:29:00,
2013-03-18 14:34:00,51.5,42.8,29.22,ESE,122,2.0,5.0,72,0.00,CLR,CLR,0.02,WeatherDisplay:10.37,2013-03-18 21:34:00,
2013-03-18 14:39:00,52.2,43.4,29.21,SSE,158,3.5,3.5,72,0.00,CLR,,0.02,WeatherDisplay:10.37,2013-03-18 21:39:00,
2013-03-18 14:44:00,52.5,42.6,29.21,SSW,202,2.3,2.4,69,0.00,CLR,,0.02,WeatherDisplay:10.37,2013-03-18 21:44:00,
2013-03-18 14:49:00,52.9,43.7,29.21,SSW,211,2.0,5.0,71,0.00,CLR,CLR,0.02,WeatherDisplay:10.37,2013-03-18 21:49:00,
2013-03-18 14:54:00,53.1,43.2,29.21,SSW,202,5.8,5.8,69,0.00,CLR,,0.02,WeatherDisplay:10.37,2013-03-18 21:54:00,
2013-03-18 14:59:00,54.0,44.4,29.20,South,180,2.3,2.3,70,0.00,CLR,,0.02,WeatherDisplay:10.37,2013-03-18 21:59:00,
2013-03-18 15:04:00,54.6,44.7,29.20,SSE,163,3.0,5.0,69,0.00,CLR,CLR,0.02,WeatherDisplay:10.37,2013-03-18 22:04:00,
2013-03-18 15:09:00,55.0,44.3,29.20,SSW,202,2.3,2.4,67,0.00,CLR,,0.02,WeatherDisplay:10.37,2013-03-18 22:09:00,
2013-03-18 15:14:00,55.1,44.7,29.20,South,187,2.0,6.0,68,0.00,CLR,CLR,0.02,WeatherDisplay:10.37,2013-03-18 22:14:00,
2013-03-18 15:19:00,55.2,43.7,29.20,SW,225,1.8,1.8,65,0.00,CLR,,0.02,WeatherDisplay:10.37,2013-03-18 22:19:00,
2013-03-18 15:24:00,54.3,42.0,29.20,WNW,292,4.6,4.6,63,0.00,CLR,,0.02,WeatherDisplay:10.37,2013-03-18 22:24:00,
2013-03-18 15:29:00,53.7,41.4,29.20,West,270,2.0,5.0,63,0.00,CLR,CLR,0.02,WeatherDisplay:10.37,2013-03-18 22:29:00,
2013-03-18 15:34:00,54.3,42.7,29.19,SSW,212,2.0,4.0,65,0.00,CLR,CLR,0.02,WeatherDisplay:10.37,2013-03-18 22:34:00,
2013-03-18 15:39:00,54.7,41.9,29.19,SSW,202,4.6,4.6,62,0.00,CLR,,0.02,WeatherDisplay:10.37,2013-03-18 22:39:00,
2013-03-18 15:44:00,55.0,43.1,29.19,SE,135,5.8,5.8,64,0.00,CLR,,0.02,WeatherDisplay:10.37,2013-03-18 22:44:00,
2013-03-18 15:49:00,54.3,42.0,29.20,South,180,4.6,4.6,63,0.00,CLR,,0.02,WeatherDisplay:10.37,2013-03-18 22:49:00,
2013-03-18 15:54:00,53.8,40.6,29.19,WSW,248,5.2,5.2,61,0.00,CLR,,0.02,WeatherDisplay:10.37,2013-03-18 22:54:00,
2013-03-18 15:59:00,54.0,41.2,29.19,WSW,237,5.0,6.0,62,0.00,CLR,CLR,0.02,WeatherDisplay:10.37,2013-03-18 22:59:00,
2013-03-18 16:04:00,54.1,41.4,29.19,SSW,202,4.6,4.6,62,0.00,CLR,,0.02,WeatherDisplay:10.37,2013-03-18 23:04:00,
2013-03-18 16:09:00,53.6,40.5,29.19,WSW,248,4.7,4.7,61,0.00,CLR,,0.02,WeatherDisplay:10.37,2013-03-18 23:09:00,
2013-03-18 16:14:00,52.3,39.7,29.20,WSW,248,5.8,5.8,62,0.00,CLR,,0.02,WeatherDisplay:10.37,2013-03-18 23:14:00,
2013-03-18 16:19:00,51.4,40.1,29.19,WSW,248,4.6,4.6,65,0.00,CLR,,0.02,WeatherDisplay:10.37,2013-03-18 23:19:00,
2013-03-18 16:24:00,51.8,40.8,29.19,SSW,202,4.6,4.6,66,0.00,CLR,,0.02,WeatherDisplay:10.37,2013-03-18 23:24:00,
2013-03-18 16:29:00,53.1,41.6,29.19,SSW,202,3.5,3.5,65,0.00,CLR,,0.02,WeatherDisplay:10.37,2013-03-18 23:29:00,
2013-03-18 16:34:00,54.5,43.0,29.19,SW,225,4.0,4.0,65,0.00,CLR,,0.02,WeatherDisplay:10.37,2013-03-18 23:34:00,
2013-03-18 16:39:00,55.4,42.6,29.19,SW,225,4.6,4.6,62,0.00,CLR,,0.02,WeatherDisplay:10.37,2013-03-18 23:39:00,
2013-03-18 16:44:00,55.4,43.0,29.19,South,180,1.6,1.6,63,0.00,CLR,,0.02,WeatherDisplay:10.37,2013-03-18 23:44:00,
2013-03-18 16:49:00,54.5,41.7,29.19,SSW,202,3.5,3.5,62,0.00,CLR,,0.02,WeatherDisplay:10.37,2013-03-18 23:49:00,
2013-03-18 16:54:00,53.4,41.5,29.20,SSW,202,1.2,1.2,64,0.00,CLR,,0.02,WeatherDisplay:10.37,2013-03-18 23:54:00,
2013-03-18 16:59:00,52.7,40.9,29.20,SW,225,2.3,2.3,64,0.00,CLR,,0.02,WeatherDisplay:10.37,2013-03-18 23:59:00,
2013-03-18 17:04:00,54.1,42.6,29.19,SW,225,3.5,3.5,65,0.00,CLR,,0.02,WeatherDisplay:10.37,2013-03-19 00:04:00,
2013-03-18 17:09:00,55.9,43.9,29.20,WSW,248,3.3,3.3,64,0.00,CLR,,0.02,WeatherDisplay:10.37,2013-03-19 00:09:00,
2013-03-18 17:14:00,55.6,41.9,29.20,WSW,248,2.3,2.3,60,0.00,CLR,,0.02,WeatherDisplay:10.37,2013-03-19 00:14:00,
2013-03-18 17:20:00,56.5,43.2,29.19,SSW,202,2.3,2.3,61,0.00,CLR,,0.02,WeatherDisplay:10.37,2013-03-19 00:20:00,
2013-03-18 17:25:00,57.4,43.6,29.19,SSE,158,2.3,2.3,60,0.00,CLR,,0.02,WeatherDisplay:10.37,2013-03-19 00:25:00,
2013-03-18 17:30:00,57.2,42.5,29.19,SW,225,3.5,3.5,58,0.00,CLR,,0.02,WeatherDisplay:10.37,2013-03-19 00:30:00,
2013-03-18 17:35:00,56.8,43.1,29.19,SSE,158,2.3,2.3,60,0.00,CLR,,0.02,WeatherDisplay:10.37,2013-03-19 00:35:00,
2013-03-18 17:40:00,56.8,42.7,29.19,South,180,1.2,1.4,59,0.00,CLR,,0.02,WeatherDisplay:10.37,2013-03-19 00:40:00,
2013-03-18 17:45:00,56.8,42.7,29.19,SSW,202,2.3,2.3,59,0.00,CLR,,0.02,WeatherDisplay:10.37,2013-03-19 00:45:00,
2013-03-18 17:50:00,55.0,41.0,29.19,SW,225,2.3,2.3,59,0.00,CLR,,0.02,WeatherDisplay:10.37,2013-03-19 00:50:00,
2013-03-18 17:55:00,54.5,41.3,29.19,SW,225,2.3,2.3,61,0.00,CLR,,0.02,WeatherDisplay:10.37,2013-03-19 00:55:00,
2013-03-18 18:00:00,54.7,41.9,29.19,WSW,248,2.3,2.3,62,0.00,CLR,,0.02,WeatherDisplay:10.37,2013-03-19 01:00:00,
2013-03-18 18:05:00,54.7,41.9,29.18,SW,225,1.2,1.2,62,0.00,CLR,,0.02,WeatherDisplay:10.37,2013-03-19 01:05:00,
2013-03-18 18:10:00,54.5,41.7,29.18,West,270,1.8,1.8,62,0.00,CLR,,0.02,WeatherDisplay:10.37,2013-03-19 01:10:00,
2013-03-18 18:15:00,54.0,40.8,29.18,West,270,2.3,2.3,61,0.00,CLR,,0.02,WeatherDisplay:10.37,2013-03-19 01:15:00,
2013-03-18 18:20:00,52.9,40.2,29.18,WSW,248,0.0,0.0,62,0.00,CLR,,0.02,WeatherDisplay:10.37,2013-03-19 01:20:00,
2013-03-18 18:25:00,52.2,40.3,29.18,NW,315,0.0,0.0,64,0.00,CLR,,0.02,WeatherDisplay:10.37,2013-03-19 01:25:00,
2013-03-18 18:30:00,51.8,40.0,29.18,NW,315,0.7,0.7,64,0.00,CLR,,0.02,WeatherDisplay:10.37,2013-03-19 01:30:00,
2013-03-18 18:35:00,51.4,39.7,29.18,NW,315,0.0,0.0,64,0.00,CLR,,0.02,WeatherDisplay:10.37,2013-03-19 01:35:00,
2013-03-18 18:40:00,51.3,39.9,29.18,NW,315,0.0,0.0,65,0.00,CLR,,0.02,WeatherDisplay:10.37,2013-03-19 01:40:00,
2013-03-18 18:45:00,50.9,39.5,29.18,NW,315,0.0,0.0,65,0.00,CLR,,0.02,WeatherDisplay:10.37,2013-03-19 01:45:00,
2013-03-18 18:50:00,50.5,39.6,29.18,NW,315,0.0,0.0,66,0.00,CLR,,0.02,WeatherDisplay:10.37,2013-03-19 01:50:00,
2013-03-18 18:55:00,50.0,38.7,29.18,NW,315,0.0,0.0,65,0.00,CLR,,0.02,WeatherDisplay:10.37,2013-03-19 01:55:00,
2013-03-18 19:00:00,48.9,38.1,29.17,NW,315,0.5,0.5,66,0.00,CLR,,0.02,WeatherDisplay:10.37,2013-03-19 02:00:00,
2013-03-18 19:05:00,47.8,37.4,29.17,NW,315,0.0,0.0,67,0.00,CLR,,0.02,WeatherDisplay:10.37,2013-03-19 02:05:00,
2013-03-18 19:10:00,47.3,37.3,29.17,NW,315,0.0,0.0,68,0.00,CLR,,0.02,WeatherDisplay:10.37,2013-03-19 02:10:00,
2013-03-18 19:15:00,46.9,36.9,29.17,NW,315,0.0,0.0,68,0.00,CLR,,0.02,WeatherDisplay:10.37,2013-03-19 02:15:00,
2013-03-18 19:20:00,46.2,36.6,29.17,SE,135,0.5,0.5,69,0.00,CLR,,0.02,WeatherDisplay:10.37,2013-03-19 02:20:00,
2013-03-18 19:25:00,45.5,36.3,29.17,ESE,112,0.5,0.5,70,0.00,CLR,,0.02,WeatherDisplay:10.37,2013-03-19 02:25:00,
2013-03-18 19:30:00,44.8,35.6,29.16,SSE,158,0.0,0.0,70,0.00,CLR,,0.02,WeatherDisplay:10.37,2013-03-19 02:30:00,
2013-03-18 19:35:00,44.2,35.4,29.16,WSW,248,0.0,0.0,71,0.00,CLR,,0.02,WeatherDisplay:10.37,2013-03-19 02:35:00,
2013-03-18 19:40:00,43.7,34.6,29.16,West,270,1.2,1.2,70,0.00,CLR,,0.02,WeatherDisplay:10.37,2013-03-19 02:40:00,
2013-03-18 19:45:00,43.2,34.4,29.16,SE,135,1.2,1.2,71,0.00,CLR,,0.02,WeatherDisplay:10.37,2013-03-19 02:45:00,
2013-03-18 19:50:00,42.8,34.0,29.16,WSW,248,0.2,0.2,71,0.00,CLR,,0.02,WeatherDisplay:10.37,2013-03-19 02:50:00,
2013-03-18 19:55:00,42.4,33.7,29.16,NNW,338,1.2,1.2,71,0.00,CLR,,0.02,WeatherDisplay:10.37,2013-03-19 02:55:00,
2013-03-18 20:00:00,42.3,33.9,29.16,SE,135,1.2,1.2,72,0.00,CLR,,0.02,WeatherDisplay:10.37,2013-03-19 03:00:00,
2013-03-18 20:05:00,42.1,33.7,29.16,South,180,1.2,1.2,72,0.00,CLR,,0.02,WeatherDisplay:10.37,2013-03-19 03:05:00,
2013-03-18 20:10:00,41.7,33.7,29.16,SE,135,1.2,1.2,73,0.00,CLR,,0.02,WeatherDisplay:10.37,2013-03-19 03:10:00,
2013-03-18 20:15:00,41.5,33.5,29.16,ENE,68,0.0,1.6,73,0.00,CLR,,0.02,WeatherDisplay:10.37,2013-03-19 03:15:00,
2013-03-18 20:20:00,41.4,33.7,29.16,West,270,2.3,0.0,74,0.00,CLR,,0.02,WeatherDisplay:10.37,2013-03-19 03:20:00,
2013-03-18 20:25:00,41.4,33.7,29.16,NNW,338,1.2,1.2,74,0.00,CLR,,0.02,WeatherDisplay:10.37,2013-03-19 03:25:00,
2013-03-18 20:30:00,41.4,33.7,29.15,South,180,2.3,2.3,74,0.00,CLR,,0.02,WeatherDisplay:10.37,2013-03-19 03:30:00,
2013-03-18 20:35:00,41.0,33.3,29.16,ENE,68,1.2,1.2,74,0.00,CLR,,0.02,WeatherDisplay:10.37,2013-03-19 03:35:00,
2013-03-18 20:40:00,40.8,33.5,29.16,SW,225,1.2,1.2,75,0.00,CLR,,0.02,WeatherDisplay:10.37,2013-03-19 03:40:00,
2013-03-18 20:45:00,40.6,33.3,29.17,SE,135,2.3,2.3,75,0.00,CLR,,0.02,WeatherDisplay:10.37,2013-03-19 03:45:00,
2013-03-18 20:50:00,40.5,33.2,29.17,East,90,1.2,1.2,75,0.00,CLR,,0.02,WeatherDisplay:10.37,2013-03-19 03:50:00,
2013-03-18 20:55:00,40.5,33.2,29.17,ESE,112,2.3,2.3,75,0.00,CLR,,0.02,WeatherDisplay:10.37,2013-03-19 03:55:00,
2013-03-18 21:00:00,40.3,33.3,29.17,East,90,1.2,1.2,76,0.00,CLR,,0.02,WeatherDisplay:10.37,2013-03-19 04:00:00,
2013-03-18 21:05:00,40.3,33.0,29.17,East,90,0.0,0.0,75,0.00,CLR,,0.02,WeatherDisplay:10.37,2013-03-19 04:05:00,
2013-03-18 21:10:00,40.1,33.1,29.17,ENE,68,1.2,1.2,76,0.00,CLR,,0.02,WeatherDisplay:10.37,2013-03-19 04:10:00,
2013-03-18 21:15:00,40.1,33.1,29.17,NE,45,1.2,1.2,76,0.00,CLR,,0.02,WeatherDisplay:10.37,2013-03-19 04:15:00,
2013-03-18 21:20:00,40.1,33.1,29.17,NNE,22,0.5,0.5,76,0.00,CLR,,0.02,WeatherDisplay:10.37,2013-03-19 04:20:00,
2013-03-18 21:26:00,39.9,33.0,29.17,NE,45,1.2,1.2,76,0.00,CLR,,0.02,WeatherDisplay:10.37,2013-03-19 04:26:00,
2013-03-18 21:31:00,39.7,33.1,29.17,North,0,1.2,1.2,77,0.00,CLR,,0.02,WeatherDisplay:10.37,2013-03-19 04:31:00,
2013-03-18 21:36:00,39.4,32.8,29.17,North,0,0.0,0.0,77,0.00,CLR,,0.02,WeatherDisplay:10.37,2013-03-19 04:36:00,
2013-03-18 21:41:00,39.2,32.6,29.17,ENE,68,2.6,2.6,77,0.00,CLR,,0.02,WeatherDisplay:10.37,2013-03-19 04:41:00,
2013-03-18 21:46:00,39.2,32.9,29.17,ENE,68,2.3,2.3,78,0.00,CLR,,0.02,WeatherDisplay:10.37,2013-03-19 04:46:00,
2013-03-18 21:51:00,39.2,32.6,29.17,ESE,112,1.2,1.2,77,0.00,CLR,,0.02,WeatherDisplay:10.37,2013-03-19 04:51:00,
2013-03-18 21:56:00,39.0,32.7,29.16,ENE,68,1.2,0.0,78,0.00,CLR,,0.02,WeatherDisplay:10.37,2013-03-19 04:56:00,
2013-03-18 22:01:00,38.8,32.6,29.16,SW,225,0.0,0.0,78,0.00,CLR,,0.02,WeatherDisplay:10.37,2013-03-19 05:01:00,
2013-03-18 22:06:00,38.7,32.4,29.16,SW,225,0.0,0.0,78,0.00,CLR,,0.02,WeatherDisplay:10.37,2013-03-19 05:06:00,
2013-03-18 22:11:00,38.5,32.2,29.16,SW,225,0.0,0.0,78,0.00,CLR,,0.02,WeatherDisplay:10.37,2013-03-19 05:11:00,
2013-03-18 22:17:00,38.5,32.2,29.16,SSE,158,0.0,0.0,78,0.00,CLR,,0.02,WeatherDisplay:10.37,2013-03-19 05:17:00,
2013-03-18 22:22:00,38.5,32.5,29.16,ESE,112,1.2,1.2,79,0.00,CLR,,0.02,WeatherDisplay:10.37,2013-03-19 05:22:00,
2013-03-18 22:27:00,38.5,32.5,29.16,ESE,112,0.2,0.2,79,0.00,CLR,,0.02,WeatherDisplay:10.37,2013-03-19 05:27:00,
2013-03-18 22:32:00,38.5,32.5,29.16,ESE,112,0.0,0.0,79,0.00,CLR,,0.02,WeatherDisplay:10.37,2013-03-19 05:32:00,
2013-03-18 22:37:00,38.1,31.9,29.16,ENE,68,0.0,0.0,78,0.00,CLR,,0.02,WeatherDisplay:10.37,2013-03-19 05:37:00,
2013-03-18 22:42:00,37.9,32.0,29.16,ENE,68,0.0,0.0,79,0.00,CLR,,0.02,WeatherDisplay:10.37,2013-03-19 05:42:00,
2013-03-18 22:47:00,37.8,31.8,29.16,NE,45,1.2,1.2,79,0.00,CLR,,0.02,WeatherDisplay:10.37,2013-03-19 05:47:00,
2013-03-18 22:52:00,37.8,32.1,29.16,NE,45,0.0,0.0,80,0.00,CLR,,0.02,WeatherDisplay:10.37,2013-03-19 05:52:00,
2013-03-18 22:57:00,37.6,32.0,29.15,NE,45,0.0,0.0,80,0.00,CLR,,0.02,WeatherDisplay:10.37,2013-03-19 05:57:00,
2013-03-18 23:02:00,37.8,32.5,29.15,NE,45,1.2,1.2,81,0.00,CLR,,0.02,WeatherDisplay:10.37,2013-03-19 06:02:00,
2013-03-18 23:07:00,37.8,32.1,29.15,NNW,338,1.2,1.2,80,0.00,CLR,,0.02,WeatherDisplay:10.37,2013-03-19 06:07:00,
2013-03-18 23:12:00,37.8,32.1,29.15,NNW,338,0.0,0.0,80,0.00,CLR,,0.02,WeatherDisplay:10.37,2013-03-19 06:12:00,
2013-03-18 23:17:00,37.8,32.1,29.15,East,90,0.0,0.5,80,0.00,CLR,,0.02,WeatherDisplay:10.37,2013-03-19 06:17:00,
2013-03-18 23:22:00,37.8,32.5,29.15,ESE,112,1.2,1.2,81,0.00,CLR,,0.02,WeatherDisplay:10.37,2013-03-19 06:22:00,
2013-03-18 23:27:00,37.8,32.5,29.15,ENE,68,1.2,1.2,81,0.00,CLR,,0.02,WeatherDisplay:10.37,2013-03-19 06:27:00,
2013-03-18 23:32:00,37.8,32.8,29.14,ENE,68,1.2,1.2,82,0.00,CLR,,0.02,WeatherDisplay:10.37,2013-03-19 06:32:00,
2013-03-18 23:37:00,37.8,32.5,29.14,NNE,22,0.0,0.0,81,0.00,CLR,,0.02,WeatherDisplay:10.37,2013-03-19 06:37:00,
2013-03-18 23:42:00,37.8,32.5,29.14,ENE,68,0.5,0.5,81,0.00,CLR,,0.02,WeatherDisplay:10.37,2013-03-19 06:42:00,
2013-03-18 23:47:00,37.8,32.5,29.13,ENE,68,2.3,2.3,81,0.00,CLR,,0.02,WeatherDisplay:10.37,2013-03-19 06:47:00,
2013-03-18 23:52:00,37.8,32.5,29.13,ESE,112,1.2,1.2,81,0.00,CLR,,0.02,WeatherDisplay:10.37,2013-03-19 06:52:00,
2013-03-18 23:57:00,37.8,32.5,29.13,ENE,68,1.2,1.2,81,0.00,CLR,,0.02,WeatherDisplay:10.37,2013-03-19 06:57:00,